createdAt,value
2024-05-09T00:00:02.319Z,7.59
2024-05-09T00:02:54.894Z,7.48
2024-05-09T00:05:42.028Z,7.46
2024-05-09T00:08:28.900Z,7.36
2024-05-09T00:11:16.417Z,7.44
2024-05-09T00:14:03.074Z,7.38
2024-05-09T00:16:49.756Z,7.26
2024-05-09T00:19:36.394Z,7.34
2024-05-09T00:22:22.848Z,7.27
2024-05-09T00:25:09.573Z,7.24
2024-05-09T00:27:56.154Z,6.86
2024-05-09T00:30:42.810Z,7.05
2024-05-09T00:33:29.662Z,7.13
2024-05-09T00:36:16.145Z,7.08
2024-05-09T00:39:02.792Z,7.08
2024-05-09T00:41:49.600Z,7.02
2024-05-09T00:44:36.292Z,6.82
2024-05-09T00:47:24.047Z,6.89
2024-05-09T00:50:15.992Z,6.91
2024-05-09T00:53:12.140Z,6.79
2024-05-09T00:55:59.317Z,6.71
2024-05-09T00:58:45.597Z,6.48
2024-05-09T01:01:32.389Z,6.45
2024-05-09T01:04:19.019Z,6.67
2024-05-09T01:07:05.512Z,6.58
2024-05-09T01:09:52.084Z,6.58
2024-05-09T01:12:39.118Z,6.38
2024-05-09T01:15:25.511Z,6.69
2024-05-09T01:18:13.526Z,6.43
2024-05-09T01:21:00.594Z,6.50
2024-05-09T01:23:47.216Z,6.28
2024-05-09T01:26:33.965Z,6.35
2024-05-09T01:29:20.598Z,6.33
2024-05-09T01:32:07.448Z,6.20
2024-05-09T01:34:53.818Z,6.27
2024-05-09T01:37:40.399Z,6.24
2024-05-09T01:40:36.364Z,6.16
2024-05-09T01:43:25.777Z,6.11
2024-05-09T01:46:16.515Z,5.86
2024-05-09T01:49:04.539Z,6.08
2024-05-09T01:51:51.185Z,6.04
2024-05-09T01:54:37.859Z,5.65
2024-05-09T01:57:24.455Z,5.83
2024-05-09T02:00:15.652Z,6.05
2024-05-09T02:03:02.538Z,5.82
2024-05-09T02:05:52.473Z,5.98
2024-05-09T02:08:39.524Z,5.92
2024-05-09T02:11:26.319Z,5.89
2024-05-09T02:14:13.130Z,5.90
2024-05-09T02:16:59.425Z,5.77
2024-05-09T02:19:46.056Z,5.73
2024-05-09T02:22:32.863Z,5.72
2024-05-09T02:25:21.218Z,5.92
2024-05-09T02:28:08.126Z,5.81
2024-05-09T02:30:54.638Z,5.54
2024-05-09T02:33:41.287Z,5.77
2024-05-09T02:36:27.792Z,5.62
2024-05-09T02:39:14.600Z,5.68
2024-05-09T02:42:01.139Z,5.43
2024-05-09T02:44:47.796Z,5.54
2024-05-09T02:47:34.669Z,5.51
2024-05-09T02:50:29.705Z,5.42
2024-05-09T02:53:23.422Z,5.45
2024-05-09T02:56:10.078Z,5.46
2024-05-09T02:58:56.870Z,5.31
2024-05-09T03:01:43.228Z,5.07
2024-05-09T03:04:29.646Z,5.17
2024-05-09T03:07:17.825Z,5.00
2024-05-09T03:10:12.205Z,5.35
2024-05-09T03:13:08.460Z,4.97
2024-05-09T03:15:55.033Z,5.37
2024-05-09T03:18:41.727Z,5.35
2024-05-09T03:21:28.336Z,5.28
2024-05-09T03:24:14.907Z,5.19
2024-05-09T03:27:02.500Z,5.12
2024-05-09T03:29:48.915Z,5.26
2024-05-09T03:32:35.651Z,5.09
2024-05-09T03:35:22.081Z,5.30
2024-05-09T03:38:08.723Z,5.20
2024-05-09T03:40:55.318Z,5.13
2024-05-09T03:43:41.946Z,5.22
2024-05-09T03:46:28.767Z,5.29
2024-05-09T03:49:15.513Z,5.27
2024-05-09T03:52:05.093Z,5.05
2024-05-09T03:54:51.739Z,5.08
2024-05-09T03:57:38.422Z,4.94
2024-05-09T04:00:31.576Z,5.15
2024-05-09T04:03:24.724Z,5.29
2024-05-09T04:06:11.915Z,5.21
2024-05-09T04:08:58.458Z,5.07
2024-05-09T04:11:45.184Z,5.18
2024-05-09T04:14:31.828Z,5.27
2024-05-09T04:17:18.413Z,5.16
2024-05-09T04:20:08.323Z,5.35
2024-05-09T04:22:54.786Z,5.38
2024-05-09T04:25:43.846Z,5.53
2024-05-09T04:28:30.198Z,5.43
2024-05-09T04:31:16.689Z,5.62
2024-05-09T04:34:03.461Z,5.35
2024-05-09T04:36:49.760Z,5.56
2024-05-09T04:39:36.474Z,6.02
2024-05-09T04:42:23.025Z,5.86
2024-05-09T04:45:09.591Z,5.70
2024-05-09T04:47:56.538Z,6.05
2024-05-09T04:50:43.542Z,6.17
2024-05-09T04:53:29.945Z,6.33
2024-05-09T04:56:16.700Z,6.41
2024-05-09T04:59:03.387Z,6.30
2024-05-09T05:01:50.020Z,6.56
2024-05-09T05:04:36.653Z,6.81
2024-05-09T05:07:23.372Z,7.08
2024-05-09T05:10:14.893Z,7.18
2024-05-09T05:13:21.002Z,8.53
2024-05-09T05:16:09.133Z,9.87
2024-05-09T05:18:56.374Z,10.60
2024-05-09T05:21:43.134Z,11.53
2024-05-09T05:24:29.617Z,11.79
2024-05-09T05:27:16.809Z,12.37
2024-05-09T05:30:04.618Z,12.62
2024-05-09T05:32:52.683Z,12.54
2024-05-09T05:35:39.784Z,12.62
2024-05-09T05:38:28.187Z,12.18
2024-05-09T05:41:15.441Z,11.61
2024-05-09T05:44:01.864Z,11.05
2024-05-09T05:46:48.537Z,10.58
2024-05-09T05:49:35.291Z,10.46
2024-05-09T05:52:21.692Z,10.29
2024-05-09T05:55:08.171Z,10.33
2024-05-09T05:57:54.836Z,10.36
2024-05-09T06:00:42.678Z,10.08
2024-05-09T06:03:29.686Z,10.30
2024-05-09T06:06:16.223Z,10.38
2024-05-09T06:09:02.815Z,10.62
2024-05-09T06:11:49.571Z,10.59
2024-05-09T06:14:36.219Z,10.91
2024-05-09T06:17:22.771Z,10.80
2024-05-09T06:20:13.464Z,11.18
2024-05-09T06:23:07.206Z,11.12
2024-05-09T06:25:53.670Z,11.22
2024-05-09T06:28:40.345Z,11.09
2024-05-09T06:31:26.823Z,11.75
2024-05-09T06:34:13.646Z,11.74
2024-05-09T06:37:00.045Z,11.92
2024-05-09T06:39:46.768Z,11.87
2024-05-09T06:42:33.229Z,12.27
2024-05-09T06:45:19.923Z,12.66
2024-05-09T06:48:07.444Z,12.25
2024-05-09T06:50:54.241Z,12.82
2024-05-09T06:53:40.921Z,12.99
2024-05-09T06:56:27.217Z,13.20
2024-05-09T06:59:13.785Z,13.03
2024-05-09T07:02:00.499Z,12.98
2024-05-09T07:04:47.344Z,13.56
2024-05-09T07:07:33.651Z,13.44
2024-05-09T07:10:28.509Z,13.64
2024-05-09T07:13:19.011Z,13.83
2024-05-09T07:16:05.505Z,13.67
2024-05-09T07:18:55.050Z,13.90
2024-05-09T07:21:41.480Z,14.05
2024-05-09T07:24:28.204Z,14.15
2024-05-09T07:27:15.036Z,14.00
2024-05-09T07:30:01.580Z,14.49
2024-05-09T07:32:48.322Z,14.35
2024-05-09T07:35:35.825Z,14.22
2024-05-09T07:38:22.582Z,14.37
2024-05-09T07:41:09.142Z,14.57
2024-05-09T07:43:55.918Z,14.74
2024-05-09T07:53:30.360Z,14.79
2024-05-09T07:55:29.177Z,14.50
2024-05-09T07:58:15.693Z,14.89
2024-05-09T08:01:05.274Z,15.06
2024-05-09T08:03:53.963Z,14.80
2024-05-09T08:06:40.248Z,15.02
2024-05-09T08:09:26.849Z,15.01
2024-05-09T08:12:14.210Z,15.27
2024-05-09T08:15:00.863Z,15.22
2024-05-09T08:17:47.757Z,15.33
2024-05-09T08:20:35.455Z,15.30
2024-05-09T08:23:23.597Z,15.14
2024-05-09T08:26:11.055Z,15.36
2024-05-09T08:28:57.754Z,15.33
2024-05-09T08:31:44.407Z,15.38
2024-05-09T08:34:30.776Z,15.51
2024-05-09T08:37:22.378Z,15.51
2024-05-09T08:40:19.906Z,15.65
2024-05-09T08:43:15.336Z,15.73
2024-05-09T08:46:02.728Z,15.82
2024-05-09T08:48:50.286Z,15.93
2024-05-09T08:51:36.763Z,15.95
2024-05-09T08:54:23.294Z,15.99
2024-05-09T08:57:09.931Z,16.04
2024-05-09T09:00:00.486Z,16.01
2024-05-09T09:02:49.928Z,15.83
2024-05-09T09:05:38.905Z,16.11
2024-05-09T09:08:26.997Z,15.99
2024-05-09T09:11:13.643Z,16.18
2024-05-09T09:14:00.163Z,16.41
2024-05-09T09:16:46.728Z,16.35
2024-05-09T09:19:33.268Z,16.30
2024-05-09T09:22:21.693Z,16.56
2024-05-09T09:25:07.958Z,16.51
2024-05-09T09:27:54.332Z,16.72
2024-05-09T09:30:41.640Z,16.85
2024-05-09T09:33:31.255Z,17.10
2024-05-09T09:36:18.481Z,17.35
2024-05-09T09:39:05.300Z,17.52
2024-05-09T09:41:52.576Z,17.46
2024-05-09T09:44:42.275Z,17.77
2024-05-09T09:47:32.598Z,17.79
2024-05-09T09:50:27.343Z,17.91
2024-05-09T09:53:19.505Z,17.91
2024-05-09T09:56:08.049Z,18.26
2024-05-09T09:58:57.616Z,18.00
2024-05-09T10:01:47.377Z,17.68
2024-05-09T10:04:33.829Z,17.54
2024-05-09T10:07:22.238Z,17.80
2024-05-09T10:10:13.769Z,17.67
2024-05-09T10:13:05.878Z,17.56
2024-05-09T10:15:54.679Z,18.15
2024-05-09T10:18:41.803Z,18.41
2024-05-09T10:21:28.762Z,17.86
2024-05-09T10:24:18.908Z,17.67
2024-05-09T10:27:05.208Z,17.94
2024-05-09T10:29:53.227Z,17.94
2024-05-09T10:32:41.244Z,18.05
2024-05-09T10:35:32.537Z,18.16
2024-05-09T10:38:18.848Z,18.44
2024-05-09T10:41:06.726Z,18.59
2024-05-09T10:43:53.213Z,18.84
2024-05-09T10:46:39.815Z,18.47
2024-05-09T10:49:26.491Z,18.76
2024-05-09T10:52:13.038Z,18.50
2024-05-09T10:55:01.042Z,18.28
2024-05-09T10:57:48.230Z,18.19
2024-05-09T11:00:36.524Z,18.50
2024-05-09T11:03:24.768Z,18.44
2024-05-09T11:06:11.890Z,18.27
2024-05-09T11:08:58.533Z,18.37
2024-05-09T11:11:45.388Z,18.83
2024-05-09T11:14:32.184Z,19.21
2024-05-09T11:17:19.181Z,19.66
2024-05-09T11:20:13.396Z,19.58
2024-05-09T11:23:09.311Z,19.83
2024-05-09T11:25:57.956Z,19.96
2024-05-09T11:28:45.688Z,19.94
2024-05-09T11:31:32.761Z,20.01
2024-05-09T11:34:19.413Z,20.34
2024-05-09T11:37:05.762Z,20.23
2024-05-09T11:39:53.854Z,19.71
2024-05-09T11:42:40.527Z,19.63
2024-05-09T11:45:27.110Z,19.91
2024-05-09T11:48:13.823Z,19.76
2024-05-09T11:51:00.342Z,19.61
2024-05-09T11:53:46.964Z,19.80
2024-05-09T11:56:33.626Z,20.36
2024-05-09T11:59:19.881Z,19.84
2024-05-09T12:02:06.555Z,20.07
2024-05-09T12:04:53.074Z,20.39
2024-05-09T12:07:39.834Z,20.52
2024-05-09T12:10:32.489Z,20.77
2024-05-09T12:13:21.682Z,20.53
2024-05-09T12:16:08.811Z,20.11
2024-05-09T12:18:56.215Z,19.72
2024-05-09T12:21:42.605Z,20.46
2024-05-09T12:24:30.501Z,20.38
2024-05-09T12:27:16.790Z,20.60
2024-05-09T12:30:04.630Z,20.68
2024-05-09T12:32:53.573Z,20.86
2024-05-09T12:35:41.094Z,21.16
2024-05-09T12:38:28.188Z,21.53
2024-05-09T12:41:14.864Z,21.78
2024-05-09T12:44:01.421Z,21.84
2024-05-09T12:46:48.031Z,22.30
2024-05-09T12:49:35.010Z,22.64
2024-05-09T12:52:21.298Z,22.21
2024-05-09T12:55:08.259Z,21.69
2024-05-09T12:57:54.600Z,20.98
2024-05-09T13:00:41.086Z,20.24
2024-05-09T13:03:27.624Z,19.77
2024-05-09T13:06:14.064Z,20.08
2024-05-09T13:09:00.740Z,20.53
2024-05-09T13:11:47.594Z,21.06
2024-05-09T13:14:34.337Z,21.48
2024-05-09T13:17:20.706Z,21.90
2024-05-09T13:20:11.982Z,21.56
2024-05-09T13:23:06.724Z,21.04
2024-05-09T13:25:54.312Z,20.35
2024-05-09T13:28:41.220Z,20.35
2024-05-09T13:31:27.589Z,20.68
2024-05-09T13:34:14.201Z,20.81
2024-05-09T13:37:00.883Z,20.79
2024-05-09T13:39:47.168Z,20.86
2024-05-09T13:42:33.902Z,21.20
2024-05-09T13:45:20.616Z,21.48
2024-05-09T13:48:09.554Z,22.02
2024-05-09T13:50:56.027Z,22.26
2024-05-09T13:53:42.336Z,22.49
2024-05-09T13:56:28.940Z,22.41
2024-05-09T13:59:15.612Z,22.02
2024-05-09T14:02:02.508Z,21.69
2024-05-09T14:04:49.090Z,20.64
2024-05-09T14:07:35.520Z,20.68
2024-05-09T14:10:28.485Z,20.59
2024-05-09T14:13:17.407Z,20.86
2024-05-09T14:16:04.132Z,20.67
2024-05-09T14:18:50.377Z,20.53
2024-05-09T14:21:37.130Z,19.82
2024-05-09T14:24:23.728Z,20.09
2024-05-09T14:27:10.308Z,20.26
2024-05-09T14:29:57.008Z,20.53
2024-05-09T14:32:43.670Z,20.66
2024-05-09T14:35:30.411Z,21.01
2024-05-09T14:38:17.039Z,20.69
2024-05-09T14:41:03.989Z,20.40
2024-05-09T14:43:50.483Z,20.58
2024-05-09T14:46:36.948Z,20.59
2024-05-09T14:49:23.605Z,20.86
2024-05-09T14:52:10.312Z,21.08
2024-05-09T14:55:00.348Z,20.84
2024-05-09T14:57:47.543Z,21.26
2024-05-09T15:00:36.693Z,21.36
2024-05-09T15:03:24.303Z,21.17
2024-05-09T15:06:10.982Z,20.88
2024-05-09T15:08:57.802Z,20.54
2024-05-09T15:11:44.221Z,20.50
2024-05-09T15:14:30.579Z,20.29
2024-05-09T15:17:17.339Z,20.16
2024-05-09T15:20:09.092Z,19.92
2024-05-09T15:22:56.392Z,19.72
2024-05-09T15:25:44.718Z,19.77
2024-05-09T15:28:31.285Z,20.06
2024-05-09T15:31:18.144Z,20.08
2024-05-09T15:34:05.102Z,20.38
2024-05-09T15:36:51.752Z,20.25
2024-05-09T15:39:38.352Z,20.02
2024-05-09T15:42:24.866Z,19.62
2024-05-09T15:45:11.355Z,19.70
2024-05-09T15:47:58.556Z,19.82
2024-05-09T15:50:45.389Z,19.57
2024-05-09T15:53:31.845Z,19.40
2024-05-09T15:56:18.479Z,19.24
2024-05-09T15:59:04.957Z,19.19
2024-05-09T16:01:51.501Z,19.41
2024-05-09T16:04:38.400Z,19.66
2024-05-09T16:07:25.178Z,19.66
2024-05-09T16:10:19.701Z,19.72
2024-05-09T16:13:07.014Z,19.51
2024-05-09T16:15:54.130Z,19.66
2024-05-09T16:18:40.885Z,19.50
2024-05-09T16:21:27.066Z,19.19
2024-05-09T16:24:13.877Z,19.42
2024-05-09T16:27:00.318Z,19.38
2024-05-09T16:29:46.699Z,19.59
2024-05-09T16:32:33.545Z,19.22
2024-05-09T16:35:19.883Z,19.46
2024-05-09T16:38:06.973Z,19.51
2024-05-09T16:40:53.879Z,19.28
2024-05-09T16:43:40.284Z,19.20
2024-05-09T16:46:28.134Z,19.46
2024-05-09T16:49:14.539Z,19.09
2024-05-09T16:52:00.819Z,18.96
2024-05-09T16:54:47.475Z,19.18
2024-05-09T16:57:34.135Z,18.98
2024-05-09T17:00:31.099Z,18.94
2024-05-09T17:03:25.772Z,18.97
2024-05-09T17:06:12.294Z,18.96
2024-05-09T17:09:07.970Z,18.85
2024-05-09T17:11:57.942Z,18.94
2024-05-09T17:14:45.200Z,18.86
2024-05-09T17:17:31.695Z,18.65
2024-05-09T17:20:28.900Z,18.74
2024-05-09T17:23:20.249Z,18.77
2024-05-09T17:26:06.600Z,18.46
2024-05-09T17:28:53.271Z,18.76
2024-05-09T17:31:39.791Z,18.77
2024-05-09T17:34:26.986Z,18.76
2024-05-09T17:37:13.804Z,18.64
2024-05-09T17:40:00.385Z,18.72
2024-05-09T17:42:46.864Z,19.14
2024-05-09T17:45:33.826Z,19.02
2024-05-09T17:48:20.853Z,18.46
2024-05-09T17:51:07.401Z,18.48
2024-05-09T17:53:53.960Z,18.44
2024-05-09T17:56:40.839Z,17.85
2024-05-09T17:59:28.264Z,18.06
2024-05-09T18:02:14.931Z,17.73
2024-05-09T18:05:01.811Z,17.65
2024-05-09T18:07:48.380Z,17.59
2024-05-09T18:10:38.545Z,17.28
2024-05-09T18:13:26.857Z,17.38
2024-05-09T18:16:14.009Z,17.06
2024-05-09T18:19:00.587Z,17.19
2024-05-09T18:21:46.936Z,17.42
2024-05-09T18:24:33.707Z,16.71
2024-05-09T18:27:20.430Z,17.03
2024-05-09T18:30:21.224Z,16.56
2024-05-09T18:33:14.547Z,16.79
2024-05-09T18:36:01.756Z,16.45
2024-05-09T18:38:49.323Z,16.52
2024-05-09T18:41:35.702Z,16.43
2024-05-09T18:44:22.288Z,16.12
2024-05-09T18:47:10.394Z,16.33
2024-05-09T18:49:57.014Z,16.23
2024-05-09T18:52:43.600Z,15.80
2024-05-09T18:55:30.141Z,16.10
2024-05-09T18:58:17.719Z,15.95
2024-05-09T19:01:04.493Z,15.79
2024-05-09T19:03:51.495Z,15.75
2024-05-09T19:06:38.870Z,15.87
2024-05-09T19:09:25.144Z,15.51
2024-05-09T19:12:12.092Z,15.49
2024-05-09T19:14:58.451Z,15.36
2024-05-09T19:17:45.115Z,15.26
2024-05-09T19:20:34.670Z,15.15
2024-05-09T19:23:22.851Z,15.04
2024-05-09T19:26:09.931Z,14.55
2024-05-09T19:28:56.633Z,14.44
2024-05-09T19:31:43.290Z,14.22
2024-05-09T19:34:29.869Z,13.76
2024-05-09T19:37:16.465Z,13.77
2024-05-09T19:40:03.516Z,13.23
2024-05-09T19:42:52.097Z,13.25
2024-05-09T19:45:38.890Z,13.13
2024-05-09T19:48:25.453Z,12.99
2024-05-09T19:51:12.039Z,12.73
2024-05-09T19:53:58.644Z,12.67
2024-05-09T19:56:45.359Z,12.35
2024-05-09T19:59:31.858Z,12.06
2024-05-09T20:02:18.518Z,12.17
2024-05-09T20:05:05.611Z,11.87
2024-05-09T20:07:51.949Z,11.74
2024-05-09T20:10:38.998Z,11.60
2024-05-09T20:13:25.348Z,11.73
2024-05-09T20:16:12.003Z,11.68
2024-05-09T20:18:58.733Z,11.56
2024-05-09T20:21:45.436Z,11.27
2024-05-09T20:24:31.944Z,11.65
2024-05-09T20:27:18.313Z,11.59
2024-05-09T20:30:09.748Z,11.49
2024-05-09T20:32:58.479Z,11.52
2024-05-09T20:35:45.239Z,11.26
2024-05-09T20:38:31.393Z,10.85
2024-05-09T20:41:18.079Z,11.03
2024-05-09T20:44:04.839Z,10.74
2024-05-09T20:46:51.114Z,10.95
2024-05-09T20:49:37.991Z,10.78
2024-05-09T20:52:24.658Z,10.69
2024-05-09T20:55:10.948Z,10.64
2024-05-09T20:57:57.945Z,10.56
2024-05-09T21:00:46.082Z,10.43
2024-05-09T21:03:38.095Z,10.33
2024-05-09T21:06:24.327Z,10.35
2024-05-09T21:09:10.876Z,10.18
2024-05-09T21:11:57.581Z,9.85
2024-05-09T21:14:44.498Z,10.01
2024-05-09T21:17:31.232Z,9.87
2024-05-09T21:20:23.905Z,9.93
2024-05-09T21:23:15.570Z,9.77
2024-05-09T21:26:02.098Z,9.68
2024-05-09T21:28:48.657Z,9.51
2024-05-09T21:31:35.630Z,9.34
2024-05-09T21:34:22.273Z,9.37
2024-05-09T21:37:08.854Z,9.05
2024-05-09T21:39:55.439Z,9.30
2024-05-09T21:42:42.112Z,9.18
2024-05-09T21:45:28.648Z,8.90
2024-05-09T21:48:15.548Z,9.28
2024-05-09T21:51:01.846Z,9.07
2024-05-09T21:53:49.035Z,9.20
2024-05-09T21:56:35.279Z,9.08
2024-05-09T21:59:22.008Z,9.15
2024-05-09T22:02:09.098Z,9.28
2024-05-09T22:04:56.208Z,8.98
2024-05-09T22:07:43.060Z,8.83
2024-05-09T22:10:34.262Z,8.86
2024-05-09T22:13:22.936Z,8.66
2024-05-09T22:16:09.589Z,8.70
2024-05-09T22:18:56.530Z,8.70
2024-05-09T22:21:43.024Z,8.45
2024-05-09T22:24:29.234Z,8.52
2024-05-09T22:27:15.729Z,8.46
2024-05-09T22:30:02.830Z,8.33
2024-05-09T22:32:50.283Z,8.38
2024-05-09T22:35:36.984Z,8.40
2024-05-09T22:38:23.819Z,8.24
2024-05-09T22:41:10.354Z,8.35
2024-05-09T22:43:57.107Z,8.14
2024-05-09T22:46:43.614Z,8.20
2024-05-09T22:49:29.915Z,8.25
2024-05-09T22:52:16.709Z,8.12
2024-05-09T22:55:03.656Z,8.08
2024-05-09T22:57:50.334Z,8.02
2024-05-09T23:00:37.157Z,7.66
2024-05-09T23:03:23.758Z,7.88
2024-05-09T23:06:10.289Z,7.43
2024-05-09T23:08:56.847Z,7.64
2024-05-09T23:11:45.114Z,7.73
2024-05-09T23:14:31.603Z,7.61
2024-05-09T23:17:19.280Z,7.57
2024-05-09T23:20:08.877Z,7.75
2024-05-09T23:22:57.645Z,7.77
2024-05-09T23:25:44.653Z,7.64
2024-05-09T23:28:31.735Z,7.62
2024-05-09T23:31:18.257Z,7.41
2024-05-09T23:34:04.971Z,7.14
2024-05-09T23:36:51.437Z,7.39
2024-05-09T23:39:38.065Z,7.30
2024-05-09T23:42:24.754Z,7.26
2024-05-09T23:45:11.247Z,7.23
2024-05-09T23:47:57.972Z,7.04
2024-05-09T23:50:44.479Z,7.15
2024-05-09T23:53:31.035Z,7.08
2024-05-09T23:56:18.612Z,7.17
2024-05-09T23:59:05.167Z,7.18
